This is the latest recevied weather packets stored in our database for station/object WA1TYB-13. If no packets are shown the sender has not sent any weather packets the latest 10 day(s).
| Time | Temp. | Humidity | Pressure | Rain* | Wind** | Luminosity | Snow |
|---|---|---|---|---|---|---|---|
| 1777896559 | 6.11° C | 59% | 1017.1 hPa | 0 mm | - | 0 W/m² | - |
| 1777896256 | 6.67° C | 57% | 1017 hPa | 0 mm | - | 0 W/m² | - |
| 1777895954 | 7.22° C | 57% | 1017.4 hPa | 0 mm | - | 0 W/m² | - |
| 1777895651 | 7.22° C | 56% | 1017.1 hPa | 0 mm | - | 0 W/m² | - |
| 1777895349 | 7.22° C | 56% | 1017 hPa | 0 mm | - | 0 W/m² | - |
| 1777895047 | 6.67° C | 57% | 1017.1 hPa | 0 mm | - | 0 W/m² | - |
| 1777894743 | 6.67° C | 56% | 1017 hPa | 0 mm | - | 0 W/m² | - |
| 1777894440 | 7.22° C | 53% | 1016.8 hPa | 0 mm | - | 0 W/m² | - |
| 1777894137 | 6.67° C | 53% | 1017.1 hPa | 0 mm | - | 0 W/m² | - |
| 1777893834 | 6.67° C | 54% | 1017 hPa | 0 mm | - | 0 W/m² | - |
| 1777893530 | 6.67° C | 53% | 1017 hPa | 0 mm | - | 0 W/m² | - |
| 1777893227 | 6.67° C | 54% | 1017 hPa | 0 mm | - | 0 W/m² | - |
| 1777892924 | 7.78° C | 51% | 1016.9 hPa | 0 mm | - | 0 W/m² | - |
| 1777892620 | 7.22° C | 52% | 1016.9 hPa | 0 mm | - | 0 W/m² | - |
| 1777892316 | 8.33° C | 51% | 1017 hPa | 0 mm | - | 0 W/m² | - |
| 1777892012 | 8.33° C | 49% | 1017 hPa | 0 mm | - | 0 W/m² | - |
| 1777891710 | 8.33° C | 48% | 1016.8 hPa | 0 mm | - | 0 W/m² | - |
| 1777891406 | 8.89° C | 47% | 1016.8 hPa | 0 mm | - | 0 W/m² | - |
| 1777891102 | 8.89° C | 47% | 1016.6 hPa | 0 mm | - | 0 W/m² | - |
| 1777890796 | 8.89° C | 45% | 1016.9 hPa | 0 mm | - | 0 W/m² | - |
| 1777890493 | 6.67° C | 52% | 1016.7 hPa | 0 mm | - | 0 W/m² | - |
| 1777890189 | 7.22° C | 51% | 1016.7 hPa | 0 mm | - | 0 W/m² | - |
| 1777889885 | 7.78° C | 49% | 1016.7 hPa | 0 mm | - | 0 W/m² | - |
| 1777889583 | 7.78° C | 48% | 1016.3 hPa | 0 mm | - | 0 W/m² | - |
| 1777889280 | 7.78° C | 50% | 1016.2 hPa | 0 mm | - | 0 W/m² | - |
* Rain latest hour (hover to see other rain measurements)
** Current wind speed in m/s (hover to see current wind gust speed)